< Typhoon 197423 1974 Season Typhoon 197425 >
Typhoon 197424 (CARMEN)
General InformationTrack Information on Google Maps || Disaster Info.ResourceGoogle EarthGE AnimationAtom FeedGeoJSON
Detalied Best Track (Time Zone = UTC)
Year Month Day Hour Lat. Long. Pressure (hPa) Wind (kt) Class Image Chart
1974 10 12 12 11.0 138.4 1008 0 2 -- Chart
1974 10 12 18 11.2 136.9 1006 0 2 -- Chart
1974 10 13 00 11.6 135.5 1006 0 2 -- Chart
1974 10 13 06 11.7 134.4 1006 0 2 -- Chart
1974 10 13 12 11.8 133.3 1006 0 2 -- Chart
1974 10 13 18 11.9 132.1 1004 0 2 -- Chart
1974 10 14 00 12.0 131.0 1004 0 2 -- Chart
1974 10 14 06 12.1 130.3 1002 0 2 -- Chart
1974 10 14 12 12.2 129.5 1000 0 2 -- Chart
1974 10 14 18 12.5 128.7 1000 0 2 -- Chart
1974 10 15 00 12.8 128.1 994 0 9 -- Chart
1974 10 15 06 13.4 126.9 992 0 9 -- Chart
1974 10 15 12 14.0 125.7 990 0 9 -- Chart
1974 10 15 18 14.5 124.6 985 0 9 -- Chart
1974 10 16 00 15.0 123.7 980 0 9 -- Chart
1974 10 16 06 15.4 122.8 975 0 9 -- Chart
1974 10 16 12 17.0 121.1 985 0 9 -- Chart
1974 10 16 18 17.6 119.9 985 0 9 -- Chart
1974 10 17 00 18.0 118.6 980 0 9 -- Chart
1974 10 17 06 18.4 117.4 980 0 9 -- Chart
1974 10 17 12 18.8 116.5 980 0 9 -- Chart
1974 10 17 18 19.4 115.8 980 0 9 -- Chart
1974 10 18 00 19.7 115.3 980 0 9 -- Chart
1974 10 18 06 20.1 115.1 980 0 9 -- Chart
1974 10 18 12 20.6 114.8 980 0 9 -- Chart
1974 10 18 18 20.8 114.3 980 0 9 -- Chart
1974 10 19 00 21.3 113.7 980 0 9 -- Chart
1974 10 19 06 21.4 113.0 985 0 9 -- Chart
1974 10 19 12 21.3 112.5 996 0 9 -- Chart
1974 10 19 18 21.0 112.0 1000 0 2 -- Chart
1974 10 20 00 20.8 111.8 1004 0 2 -- Chart
1974 10 20 06 20.6 111.6 1006 0 2 -- Chart
1974 10 20 12 20.5 111.5 1008 0 2 -- Chart
1974 10 20 18 20.5 111.5 1010 0 2 -- Chart
Japan Meteorological Agency Best Track Data | Correction Date : 1989-06-01
< Typhoon 197423 1974 Season Typhoon 197425 >

Help